sensor_id;sensor_type;location;lat;lon;timestamp;P1;durP1;ratioP1;P2;durP2;ratioP2
20454;SDS011;10386;54.314;10.022;2022-11-18T00:01:43;17.93;;;9.70;;
20454;SDS011;10386;54.314;10.022;2022-11-18T00:04:10;21.50;;;10.67;;
20454;SDS011;10386;54.314;10.022;2022-11-18T00:06:39;17.63;;;10.53;;
20454;SDS011;10386;54.314;10.022;2022-11-18T00:09:07;21.90;;;11.57;;
20454;SDS011;10386;54.314;10.022;2022-11-18T00:11:35;18.20;;;9.90;;
20454;SDS011;10386;54.314;10.022;2022-11-18T00:14:22;21.47;;;10.43;;
20454;SDS011;10386;54.314;10.022;2022-11-18T00:16:56;20.20;;;10.30;;
20454;SDS011;10386;54.314;10.022;2022-11-18T00:19:27;23.70;;;11.37;;
20454;SDS011;10386;54.314;10.022;2022-11-18T00:21:58;20.13;;;11.33;;
20454;SDS011;10386;54.314;10.022;2022-11-18T00:24:25;22.37;;;11.97;;
20454;SDS011;10386;54.314;10.022;2022-11-18T00:26:53;23.27;;;12.83;;
20454;SDS011;10386;54.314;10.022;2022-11-18T00:29:23;30.87;;;12.77;;
20454;SDS011;10386;54.314;10.022;2022-11-18T00:31:54;23.87;;;12.60;;
20454;SDS011;10386;54.314;10.022;2022-11-18T00:34:21;28.73;;;14.03;;
20454;SDS011;10386;54.314;10.022;2022-11-18T00:36:49;31.23;;;14.37;;
20454;SDS011;10386;54.314;10.022;2022-11-18T00:39:17;31.07;;;15.30;;
20454;SDS011;10386;54.314;10.022;2022-11-18T00:41:46;30.80;;;15.07;;
20454;SDS011;10386;54.314;10.022;2022-11-18T00:44:31;28.60;;;14.47;;
20454;SDS011;10386;54.314;10.022;2022-11-18T00:46:59;32.47;;;15.77;;
20454;SDS011;10386;54.314;10.022;2022-11-18T00:49:26;30.60;;;14.90;;
20454;SDS011;10386;54.314;10.022;2022-11-18T00:51:53;33.57;;;15.47;;
20454;SDS011;10386;54.314;10.022;2022-11-18T00:54:19;34.70;;;15.37;;
20454;SDS011;10386;54.314;10.022;2022-11-18T00:59:38;31.63;;;15.80;;
20454;SDS011;10386;54.314;10.022;2022-11-18T01:02:05;34.50;;;17.03;;
20454;SDS011;10386;54.314;10.022;2022-11-18T01:04:32;36.80;;;15.73;;
20454;SDS011;10386;54.314;10.022;2022-11-18T01:06:59;37.93;;;16.20;;
20454;SDS011;10386;54.314;10.022;2022-11-18T01:09:26;38.30;;;16.00;;
20454;SDS011;10386;54.314;10.022;2022-11-18T01:11:53;39.33;;;17.43;;
20454;SDS011;10386;54.314;10.022;2022-11-18T01:14:38;37.57;;;16.87;;
20454;SDS011;10386;54.314;10.022;2022-11-18T01:17:04;38.37;;;16.87;;
20454;SDS011;10386;54.314;10.022;2022-11-18T01:19:32;39.00;;;16.77;;
20454;SDS011;10386;54.314;10.022;2022-11-18T01:21:59;36.57;;;15.83;;
20454;SDS011;10386;54.314;10.022;2022-11-18T01:27:20;40.67;;;16.47;;
20454;SDS011;10386;54.314;10.022;2022-11-18T01:29:47;38.10;;;16.07;;
20454;SDS011;10386;54.314;10.022;2022-11-18T01:32:14;38.23;;;16.93;;
20454;SDS011;10386;54.314;10.022;2022-11-18T01:34:51;45.20;;;18.20;;
20454;SDS011;10386;54.314;10.022;2022-11-18T01:37:18;31.93;;;14.80;;
20454;SDS011;10386;54.314;10.022;2022-11-18T01:39:45;38.97;;;16.33;;
20454;SDS011;10386;54.314;10.022;2022-11-18T01:42:14;41.57;;;16.77;;
20454;SDS011;10386;54.314;10.022;2022-11-18T01:44:56;42.70;;;18.60;;
20454;SDS011;10386;54.314;10.022;2022-11-18T01:47:47;42.23;;;17.67;;
20454;SDS011;10386;54.314;10.022;2022-11-18T01:50:19;36.77;;;16.13;;
20454;SDS011;10386;54.314;10.022;2022-11-18T01:52:47;40.23;;;16.77;;
20454;SDS011;10386;54.314;10.022;2022-11-18T01:55:18;42.43;;;18.83;;
20454;SDS011;10386;54.314;10.022;2022-11-18T01:57:50;44.07;;;18.10;;
20454;SDS011;10386;54.314;10.022;2022-11-18T02:00:22;40.57;;;17.73;;
20454;SDS011;10386;54.314;10.022;2022-11-18T02:02:49;34.87;;;16.03;;
20454;SDS011;10386;54.314;10.022;2022-11-18T02:08:09;35.17;;;16.10;;
20454;SDS011;10386;54.314;10.022;2022-11-18T02:10:36;35.00;;;16.20;;
20454;SDS011;10386;54.314;10.022;2022-11-18T02:13:03;36.50;;;15.70;;
20454;SDS011;10386;54.314;10.022;2022-11-18T02:16:05;32.10;;;14.43;;
20454;SDS011;10386;54.314;10.022;2022-11-18T02:18:46;34.23;;;15.60;;
20454;SDS011;10386;54.314;10.022;2022-11-18T02:27:11;36.43;;;15.50;;
20454;SDS011;10386;54.314;10.022;2022-11-18T02:29:47;33.63;;;14.33;;
20454;SDS011;10386;54.314;10.022;2022-11-18T02:32:24;26.87;;;13.13;;
20454;SDS011;10386;54.314;10.022;2022-11-18T02:35:05;36.80;;;15.00;;
20454;SDS011;10386;54.314;10.022;2022-11-18T02:37:48;31.63;;;13.63;;
20454;SDS011;10386;54.314;10.022;2022-11-18T02:40:24;28.90;;;13.00;;
20454;SDS011;10386;54.314;10.022;2022-11-18T02:43:01;29.37;;;13.60;;
20454;SDS011;10386;54.314;10.022;2022-11-18T02:45:36;30.07;;;13.13;;
20454;SDS011;10386;54.314;10.022;2022-11-18T02:48:07;23.90;;;12.17;;
20454;SDS011;10386;54.314;10.022;2022-11-18T02:50:37;24.90;;;12.23;;
20454;SDS011;10386;54.314;10.022;2022-11-18T02:53:06;26.70;;;12.90;;
20454;SDS011;10386;54.314;10.022;2022-11-18T02:55:36;24.70;;;12.60;;
20454;SDS011;10386;54.314;10.022;2022-11-18T02:58:06;25.97;;;12.80;;
20454;SDS011;10386;54.314;10.022;2022-11-18T03:00:34;26.57;;;12.40;;
20454;SDS011;10386;54.314;10.022;2022-11-18T03:03:20;28.90;;;12.90;;
20454;SDS011;10386;54.314;10.022;2022-11-18T03:06:38;25.03;;;12.63;;
20454;SDS011;10386;54.314;10.022;2022-11-18T03:08:52;26.70;;;12.23;;
20454;SDS011;10386;54.314;10.022;2022-11-18T03:14:27;26.77;;;12.00;;
20454;SDS011;10386;54.314;10.022;2022-11-18T03:25:41;23.27;;;12.20;;
20454;SDS011;10386;54.314;10.022;2022-11-18T03:28:17;23.70;;;12.47;;
20454;SDS011;10386;54.314;10.022;2022-11-18T03:31:01;25.80;;;12.33;;
20454;SDS011;10386;54.314;10.022;2022-11-18T03:33:31;23.63;;;11.63;;
20454;SDS011;10386;54.314;10.022;2022-11-18T03:36:02;23.83;;;12.37;;
20454;SDS011;10386;54.314;10.022;2022-11-18T03:38:35;22.93;;;11.90;;
20454;SDS011;10386;54.314;10.022;2022-11-18T03:41:07;25.30;;;11.40;;
20454;SDS011;10386;54.314;10.022;2022-11-18T03:43:38;19.53;;;10.37;;
20454;SDS011;10386;54.314;10.022;2022-11-18T03:46:18;21.47;;;10.70;;
20454;SDS011;10386;54.314;10.022;2022-11-18T03:48:53;23.63;;;10.70;;
20454;SDS011;10386;54.314;10.022;2022-11-18T03:51:23;22.40;;;11.33;;
20454;SDS011;10386;54.314;10.022;2022-11-18T03:54:09;21.27;;;10.27;;
20454;SDS011;10386;54.314;10.022;2022-11-18T03:56:42;19.30;;;10.80;;
20454;SDS011;10386;54.314;10.022;2022-11-18T03:59:22;21.80;;;10.53;;
20454;SDS011;10386;54.314;10.022;2022-11-18T04:01:59;20.37;;;10.43;;
20454;SDS011;10386;54.314;10.022;2022-11-18T04:04:39;16.63;;;9.43;;
20454;SDS011;10386;54.314;10.022;2022-11-18T04:07:09;19.00;;;9.33;;
20454;SDS011;10386;54.314;10.022;2022-11-18T04:09:59;21.90;;;10.10;;
20454;SDS011;10386;54.314;10.022;2022-11-18T04:12:30;17.97;;;9.13;;
20454;SDS011;10386;54.314;10.022;2022-11-18T04:15:04;18.90;;;9.80;;
20454;SDS011;10386;54.314;10.022;2022-11-18T04:17:32;19.07;;;9.40;;
20454;SDS011;10386;54.314;10.022;2022-11-18T04:19:59;18.47;;;9.80;;
20454;SDS011;10386;54.314;10.022;2022-11-18T04:22:26;16.40;;;9.23;;
20454;SDS011;10386;54.314;10.022;2022-11-18T04:24:54;19.23;;;9.43;;
20454;SDS011;10386;54.314;10.022;2022-11-18T04:27:21;19.13;;;8.67;;
20454;SDS011;10386;54.314;10.022;2022-11-18T04:29:48;16.93;;;8.67;;
20454;SDS011;10386;54.314;10.022;2022-11-18T04:32:15;16.47;;;8.60;;
20454;SDS011;10386;54.314;10.022;2022-11-18T04:34:42;17.07;;;9.13;;
20454;SDS011;10386;54.314;10.022;2022-11-18T04:37:14;17.87;;;8.13;;
20454;SDS011;10386;54.314;10.022;2022-11-18T04:39:41;21.13;;;8.73;;
20454;SDS011;10386;54.314;10.022;2022-11-18T04:42:09;15.10;;;7.63;;
20454;SDS011;10386;54.314;10.022;2022-11-18T04:44:36;16.37;;;7.90;;
20454;SDS011;10386;54.314;10.022;2022-11-18T04:47:04;13.07;;;6.97;;
20454;SDS011;10386;54.314;10.022;2022-11-18T04:49:32;15.57;;;7.80;;
20454;SDS011;10386;54.314;10.022;2022-11-18T04:52:01;17.37;;;7.57;;
20454;SDS011;10386;54.314;10.022;2022-11-18T04:54:28;12.83;;;6.47;;
20454;SDS011;10386;54.314;10.022;2022-11-18T04:56:55;17.90;;;7.30;;
20454;SDS011;10386;54.314;10.022;2022-11-18T04:59:24;13.50;;;6.57;;
20454;SDS011;10386;54.314;10.022;2022-11-18T05:01:53;12.60;;;6.70;;
20454;SDS011;10386;54.314;10.022;2022-11-18T05:04:21;13.63;;;7.20;;
20454;SDS011;10386;54.314;10.022;2022-11-18T05:06:51;11.37;;;6.40;;
20454;SDS011;10386;54.314;10.022;2022-11-18T05:09:43;11.23;;;6.07;;
20454;SDS011;10386;54.314;10.022;2022-11-18T05:12:15;11.03;;;5.77;;
20454;SDS011;10386;54.314;10.022;2022-11-18T05:15:01;12.00;;;6.27;;
20454;SDS011;10386;54.314;10.022;2022-11-18T05:17:28;11.00;;;5.47;;
20454;SDS011;10386;54.314;10.022;2022-11-18T05:20:25;10.43;;;5.93;;
20454;SDS011;10386;54.314;10.022;2022-11-18T05:22:56;10.87;;;6.17;;
20454;SDS011;10386;54.314;10.022;2022-11-18T05:25:24;11.30;;;5.97;;
20454;SDS011;10386;54.314;10.022;2022-11-18T05:27:54;11.77;;;6.10;;
20454;SDS011;10386;54.314;10.022;2022-11-18T05:30:21;11.37;;;6.03;;
20454;SDS011;10386;54.314;10.022;2022-11-18T05:32:50;11.47;;;6.30;;
20454;SDS011;10386;54.314;10.022;2022-11-18T05:35:18;9.67;;;5.83;;
20454;SDS011;10386;54.314;10.022;2022-11-18T05:37:45;11.40;;;6.23;;
20454;SDS011;10386;54.314;10.022;2022-11-18T05:40:12;11.10;;;6.40;;
20454;SDS011;10386;54.314;10.022;2022-11-18T05:42:39;9.27;;;6.60;;
20454;SDS011;10386;54.314;10.022;2022-11-18T05:45:24;15.80;;;6.40;;
20454;SDS011;10386;54.314;10.022;2022-11-18T05:47:51;14.60;;;6.23;;
20454;SDS011;10386;54.314;10.022;2022-11-18T05:50:30;10.77;;;6.00;;
20454;SDS011;10386;54.314;10.022;2022-11-18T05:53:00;8.37;;;5.83;;
20454;SDS011;10386;54.314;10.022;2022-11-18T05:55:30;10.83;;;6.00;;
20454;SDS011;10386;54.314;10.022;2022-11-18T05:58:02;15.00;;;5.93;;
20454;SDS011;10386;54.314;10.022;2022-11-18T06:00:30;10.30;;;6.00;;
20454;SDS011;10386;54.314;10.022;2022-11-18T06:02:58;15.17;;;6.43;;
20454;SDS011;10386;54.314;10.022;2022-11-18T06:05:26;10.27;;;5.87;;
20454;SDS011;10386;54.314;10.022;2022-11-18T06:07:57;11.83;;;5.67;;
20454;SDS011;10386;54.314;10.022;2022-11-18T06:10:26;8.93;;;5.53;;
20454;SDS011;10386;54.314;10.022;2022-11-18T06:13:02;10.10;;;6.30;;
20454;SDS011;10386;54.314;10.022;2022-11-18T06:15:35;13.17;;;6.17;;
20454;SDS011;10386;54.314;10.022;2022-11-18T06:18:14;10.70;;;5.60;;
20454;SDS011;10386;54.314;10.022;2022-11-18T06:20:46;11.57;;;6.17;;
20454;SDS011;10386;54.314;10.022;2022-11-18T06:23:13;11.80;;;5.90;;
20454;SDS011;10386;54.314;10.022;2022-11-18T06:25:41;12.90;;;5.97;;
20454;SDS011;10386;54.314;10.022;2022-11-18T06:28:13;15.87;;;6.67;;
20454;SDS011;10386;54.314;10.022;2022-11-18T06:31:04;11.03;;;5.87;;
20454;SDS011;10386;54.314;10.022;2022-11-18T06:33:31;10.13;;;5.30;;
20454;SDS011;10386;54.314;10.022;2022-11-18T06:35:58;10.23;;;6.23;;
20454;SDS011;10386;54.314;10.022;2022-11-18T06:38:26;10.07;;;4.90;;
20454;SDS011;10386;54.314;10.022;2022-11-18T06:40:58;9.63;;;5.50;;
20454;SDS011;10386;54.314;10.022;2022-11-18T06:43:50;13.57;;;5.83;;
20454;SDS011;10386;54.314;10.022;2022-11-18T06:46:17;13.77;;;6.00;;
20454;SDS011;10386;54.314;10.022;2022-11-18T06:49:02;10.57;;;5.47;;
20454;SDS011;10386;54.314;10.022;2022-11-18T06:51:29;11.27;;;6.13;;
20454;SDS011;10386;54.314;10.022;2022-11-18T06:53:56;12.37;;;6.47;;
20454;SDS011;10386;54.314;10.022;2022-11-18T06:56:23;10.30;;;6.00;;
20454;SDS011;10386;54.314;10.022;2022-11-18T07:01:49;10.40;;;5.30;;
20454;SDS011;10386;54.314;10.022;2022-11-18T07:04:18;11.97;;;5.20;;
20454;SDS011;10386;54.314;10.022;2022-11-18T07:06:46;10.87;;;5.97;;
20454;SDS011;10386;54.314;10.022;2022-11-18T07:09:38;9.43;;;5.40;;
20454;SDS011;10386;54.314;10.022;2022-11-18T07:12:07;11.53;;;5.70;;
20454;SDS011;10386;54.314;10.022;2022-11-18T07:14:34;9.80;;;5.20;;
20454;SDS011;10386;54.314;10.022;2022-11-18T07:17:01;10.90;;;4.97;;
20454;SDS011;10386;54.314;10.022;2022-11-18T07:19:28;8.73;;;5.27;;
20454;SDS011;10386;54.314;10.022;2022-11-18T07:22:01;13.57;;;5.80;;
20454;SDS011;10386;54.314;10.022;2022-11-18T07:24:28;11.80;;;5.30;;
20454;SDS011;10386;54.314;10.022;2022-11-18T07:26:55;11.37;;;5.83;;
20454;SDS011;10386;54.314;10.022;2022-11-18T07:29:22;11.67;;;6.07;;
20454;SDS011;10386;54.314;10.022;2022-11-18T07:31:49;13.87;;;6.20;;
20454;SDS011;10386;54.314;10.022;2022-11-18T07:34:16;14.07;;;6.57;;
20454;SDS011;10386;54.314;10.022;2022-11-18T07:36:44;11.67;;;5.77;;
20454;SDS011;10386;54.314;10.022;2022-11-18T07:39:11;13.50;;;7.00;;
20454;SDS011;10386;54.314;10.022;2022-11-18T07:41:39;11.17;;;5.80;;
20454;SDS011;10386;54.314;10.022;2022-11-18T07:44:06;13.77;;;6.87;;
20454;SDS011;10386;54.314;10.022;2022-11-18T07:46:37;11.23;;;6.10;;
20454;SDS011;10386;54.314;10.022;2022-11-18T07:49:05;13.33;;;6.80;;
20454;SDS011;10386;54.314;10.022;2022-11-18T07:51:36;15.20;;;6.17;;
20454;SDS011;10386;54.314;10.022;2022-11-18T07:54:09;11.83;;;6.00;;
20454;SDS011;10386;54.314;10.022;2022-11-18T07:56:42;14.37;;;7.37;;
20454;SDS011;10386;54.314;10.022;2022-11-18T07:59:09;13.33;;;6.43;;
20454;SDS011;10386;54.314;10.022;2022-11-18T08:01:36;14.30;;;6.67;;
20454;SDS011;10386;54.314;10.022;2022-11-18T08:04:08;10.33;;;6.17;;
20454;SDS011;10386;54.314;10.022;2022-11-18T08:06:36;12.83;;;6.20;;
20454;SDS011;10386;54.314;10.022;2022-11-18T08:09:04;11.90;;;6.67;;
20454;SDS011;10386;54.314;10.022;2022-11-18T08:11:32;14.83;;;6.50;;
20454;SDS011;10386;54.314;10.022;2022-11-18T08:14:01;11.90;;;6.10;;
20454;SDS011;10386;54.314;10.022;2022-11-18T08:16:29;9.00;;;5.37;;
20454;SDS011;10386;54.314;10.022;2022-11-18T08:18:57;9.83;;;5.50;;
20454;SDS011;10386;54.314;10.022;2022-11-18T08:21:25;12.53;;;5.90;;
20454;SDS011;10386;54.314;10.022;2022-11-18T08:23:53;7.97;;;5.23;;
20454;SDS011;10386;54.314;10.022;2022-11-18T08:26:21;11.13;;;5.13;;
20454;SDS011;10386;54.314;10.022;2022-11-18T08:28:50;6.60;;;3.97;;
20454;SDS011;10386;54.314;10.022;2022-11-18T08:31:22;8.83;;;4.93;;
20454;SDS011;10386;54.314;10.022;2022-11-18T08:33:58;7.63;;;4.73;;
20454;SDS011;10386;54.314;10.022;2022-11-18T08:36:35;7.40;;;4.30;;
20454;SDS011;10386;54.314;10.022;2022-11-18T08:39:04;6.97;;;4.23;;
20454;SDS011;10386;54.314;10.022;2022-11-18T08:41:34;7.63;;;3.60;;
20454;SDS011;10386;54.314;10.022;2022-11-18T08:44:06;7.07;;;4.13;;
20454;SDS011;10386;54.314;10.022;2022-11-18T08:46:34;11.53;;;4.73;;
20454;SDS011;10386;54.314;10.022;2022-11-18T08:49:01;8.30;;;4.93;;
20454;SDS011;10386;54.314;10.022;2022-11-18T08:51:28;5.20;;;3.60;;
20454;SDS011;10386;54.314;10.022;2022-11-18T08:54:00;5.93;;;3.87;;
20454;SDS011;10386;54.314;10.022;2022-11-18T08:56:26;5.63;;;3.60;;
20454;SDS011;10386;54.314;10.022;2022-11-18T08:59:02;4.47;;;3.20;;
20454;SDS011;10386;54.314;10.022;2022-11-18T09:01:29;10.47;;;3.93;;
20454;SDS011;10386;54.314;10.022;2022-11-18T09:03:56;7.97;;;3.87;;
20454;SDS011;10386;54.314;10.022;2022-11-18T09:06:23;5.73;;;3.53;;
20454;SDS011;10386;54.314;10.022;2022-11-18T09:08:51;7.20;;;3.60;;
20454;SDS011;10386;54.314;10.022;2022-11-18T09:11:19;4.37;;;3.30;;
20454;SDS011;10386;54.314;10.022;2022-11-18T09:13:51;5.53;;;3.20;;
20454;SDS011;10386;54.314;10.022;2022-11-18T09:16:40;3.97;;;3.37;;
20454;SDS011;10386;54.314;10.022;2022-11-18T09:19:07;4.67;;;3.40;;
20454;SDS011;10386;54.314;10.022;2022-11-18T09:21:54;5.30;;;3.70;;
20454;SDS011;10386;54.314;10.022;2022-11-18T09:24:21;4.47;;;3.23;;
20454;SDS011;10386;54.314;10.022;2022-11-18T09:26:48;5.27;;;3.40;;
20454;SDS011;10386;54.314;10.022;2022-11-18T09:29:16;5.23;;;3.43;;
20454;SDS011;10386;54.314;10.022;2022-11-18T09:31:43;6.07;;;3.30;;
20454;SDS011;10386;54.314;10.022;2022-11-18T09:34:10;4.33;;;3.23;;
20454;SDS011;10386;54.314;10.022;2022-11-18T09:36:37;4.57;;;3.33;;
20454;SDS011;10386;54.314;10.022;2022-11-18T09:39:04;3.93;;;2.80;;
20454;SDS011;10386;54.314;10.022;2022-11-18T09:41:35;5.73;;;3.30;;
20454;SDS011;10386;54.314;10.022;2022-11-18T09:44:15;3.97;;;2.87;;
20454;SDS011;10386;54.314;10.022;2022-11-18T09:47:00;4.83;;;3.30;;
20454;SDS011;10386;54.314;10.022;2022-11-18T09:49:47;4.57;;;2.90;;
20454;SDS011;10386;54.314;10.022;2022-11-18T09:52:32;3.63;;;2.90;;
20454;SDS011;10386;54.314;10.022;2022-11-18T09:55:14;5.47;;;3.20;;
20454;SDS011;10386;54.314;10.022;2022-11-18T09:57:44;3.43;;;2.97;;
20454;SDS011;10386;54.314;10.022;2022-11-18T10:00:38;9.10;;;3.57;;
20454;SDS011;10386;54.314;10.022;2022-11-18T10:03:18;4.17;;;3.40;;
20454;SDS011;10386;54.314;10.022;2022-11-18T10:06:11;5.87;;;3.03;;
20454;SDS011;10386;54.314;10.022;2022-11-18T10:14:42;2.90;;;2.23;;
20454;SDS011;10386;54.314;10.022;2022-11-18T10:22:51;2.67;;;2.27;;
20454;SDS011;10386;54.314;10.022;2022-11-18T10:25:22;3.70;;;2.30;;
20454;SDS011;10386;54.314;10.022;2022-11-18T10:27:49;3.90;;;2.47;;
20454;SDS011;10386;54.314;10.022;2022-11-18T10:30:23;3.97;;;2.40;;
20454;SDS011;10386;54.314;10.022;2022-11-18T10:32:56;6.73;;;2.90;;
20454;SDS011;10386;54.314;10.022;2022-11-18T10:38:42;5.50;;;2.53;;
20454;SDS011;10386;54.314;10.022;2022-11-18T10:41:15;4.80;;;3.23;;
20454;SDS011;10386;54.314;10.022;2022-11-18T10:43:53;7.33;;;4.17;;
20454;SDS011;10386;54.314;10.022;2022-11-18T10:46:25;5.33;;;3.10;;
20454;SDS011;10386;54.314;10.022;2022-11-18T10:51:36;4.13;;;2.67;;
20454;SDS011;10386;54.314;10.022;2022-11-18T10:54:08;4.17;;;2.60;;
20454;SDS011;10386;54.314;10.022;2022-11-18T11:01:58;4.83;;;3.00;;
20454;SDS011;10386;54.314;10.022;2022-11-18T11:04:41;5.20;;;3.10;;
20454;SDS011;10386;54.314;10.022;2022-11-18T11:07:15;7.23;;;2.60;;
20454;SDS011;10386;54.314;10.022;2022-11-18T11:10:13;3.70;;;2.63;;
20454;SDS011;10386;54.314;10.022;2022-11-18T11:12:53;2.60;;;2.40;;
20454;SDS011;10386;54.314;10.022;2022-11-18T11:15:35;8.90;;;2.90;;
20454;SDS011;10386;54.314;10.022;2022-11-18T11:21:10;4.23;;;2.80;;
20454;SDS011;10386;54.314;10.022;2022-11-18T11:23:48;3.50;;;2.53;;
20454;SDS011;10386;54.314;10.022;2022-11-18T11:26:26;2.87;;;2.60;;
20454;SDS011;10386;54.314;10.022;2022-11-18T11:29:24;2.53;;;2.33;;
20454;SDS011;10386;54.314;10.022;2022-11-18T11:31:59;4.10;;;2.50;;
20454;SDS011;10386;54.314;10.022;2022-11-18T11:34:41;4.17;;;2.50;;
20454;SDS011;10386;54.314;10.022;2022-11-18T11:40:22;4.17;;;2.50;;
20454;SDS011;10386;54.314;10.022;2022-11-18T12:00:12;3.53;;;2.10;;
20454;SDS011;10386;54.314;10.022;2022-11-18T12:05:27;2.83;;;2.10;;
20454;SDS011;10386;54.314;10.022;2022-11-18T12:07:57;3.73;;;2.00;;
20454;SDS011;10386;54.314;10.022;2022-11-18T12:18:45;3.37;;;1.93;;
20454;SDS011;10386;54.314;10.022;2022-11-18T12:24:57;5.07;;;2.20;;
20454;SDS011;10386;54.314;10.022;2022-11-18T12:29:35;4.77;;;2.23;;
20454;SDS011;10386;54.314;10.022;2022-11-18T12:35:00;2.43;;;1.67;;
20454;SDS011;10386;54.314;10.022;2022-11-18T12:39:58;3.67;;;2.00;;
20454;SDS011;10386;54.314;10.022;2022-11-18T12:42:45;2.63;;;1.80;;
20454;SDS011;10386;54.314;10.022;2022-11-18T12:50:59;3.47;;;1.90;;
20454;SDS011;10386;54.314;10.022;2022-11-18T12:53:42;4.70;;;1.70;;
20454;SDS011;10386;54.314;10.022;2022-11-18T12:59:02;3.80;;;1.80;;
20454;SDS011;10386;54.314;10.022;2022-11-18T13:01:30;2.13;;;1.70;;
20454;SDS011;10386;54.314;10.022;2022-11-18T13:04:05;1.47;;;1.37;;
20454;SDS011;10386;54.314;10.022;2022-11-18T13:06:38;1.70;;;1.50;;
20454;SDS011;10386;54.314;10.022;2022-11-18T13:09:39;2.90;;;1.47;;
20454;SDS011;10386;54.314;10.022;2022-11-18T13:12:06;1.73;;;1.63;;
20454;SDS011;10386;54.314;10.022;2022-11-18T13:14:43;1.90;;;1.70;;
20454;SDS011;10386;54.314;10.022;2022-11-18T13:17:37;2.50;;;1.57;;
20454;SDS011;10386;54.314;10.022;2022-11-18T13:23:03;3.97;;;2.13;;
20454;SDS011;10386;54.314;10.022;2022-11-18T13:26:25;3.13;;;1.43;;
20454;SDS011;10386;54.314;10.022;2022-11-18T13:28:59;2.50;;;1.90;;
20454;SDS011;10386;54.314;10.022;2022-11-18T13:36:48;2.13;;;1.57;;
20454;SDS011;10386;54.314;10.022;2022-11-18T13:39:17;5.30;;;1.90;;
20454;SDS011;10386;54.314;10.022;2022-11-18T13:42:01;1.90;;;1.70;;
20454;SDS011;10386;54.314;10.022;2022-11-18T13:44:31;2.07;;;1.70;;
20454;SDS011;10386;54.314;10.022;2022-11-18T13:52:37;3.03;;;1.93;;
20454;SDS011;10386;54.314;10.022;2022-11-18T13:55:25;1.93;;;1.77;;
20454;SDS011;10386;54.314;10.022;2022-11-18T13:58:00;2.87;;;2.10;;
20454;SDS011;10386;54.314;10.022;2022-11-18T14:00:30;8.17;;;2.10;;
20454;SDS011;10386;54.314;10.022;2022-11-18T14:05:56;2.17;;;1.93;;
20454;SDS011;10386;54.314;10.022;2022-11-18T14:08:31;1.80;;;1.70;;
20454;SDS011;10386;54.314;10.022;2022-11-18T14:10:59;3.30;;;1.80;;
20454;SDS011;10386;54.314;10.022;2022-11-18T14:13:29;3.17;;;1.77;;
20454;SDS011;10386;54.314;10.022;2022-11-18T14:15:59;3.03;;;2.10;;
20454;SDS011;10386;54.314;10.022;2022-11-18T14:18:49;2.27;;;2.00;;
20454;SDS011;10386;54.314;10.022;2022-11-18T14:21:27;4.60;;;1.70;;
20454;SDS011;10386;54.314;10.022;2022-11-18T14:23:55;1.93;;;1.80;;
20454;SDS011;10386;54.314;10.022;2022-11-18T14:26:27;2.43;;;1.97;;
20454;SDS011;10386;54.314;10.022;2022-11-18T14:29:00;3.77;;;2.20;;
20454;SDS011;10386;54.314;10.022;2022-11-18T14:31:30;2.73;;;2.40;;
20454;SDS011;10386;54.314;10.022;2022-11-18T14:36:52;3.97;;;2.03;;
20454;SDS011;10386;54.314;10.022;2022-11-18T14:41:53;2.83;;;2.00;;
20454;SDS011;10386;54.314;10.022;2022-11-18T14:44:21;2.57;;;2.30;;
20454;SDS011;10386;54.314;10.022;2022-11-18T14:49:25;2.87;;;1.93;;
20454;SDS011;10386;54.314;10.022;2022-11-18T14:51:54;4.60;;;2.50;;
20454;SDS011;10386;54.314;10.022;2022-11-18T14:54:22;2.70;;;2.07;;
20454;SDS011;10386;54.314;10.022;2022-11-18T14:57:02;2.37;;;1.97;;
20454;SDS011;10386;54.314;10.022;2022-11-18T14:59:30;3.90;;;2.30;;
20454;SDS011;10386;54.314;10.022;2022-11-18T15:01:57;2.30;;;2.10;;
20454;SDS011;10386;54.314;10.022;2022-11-18T15:04:25;4.93;;;2.30;;
20454;SDS011;10386;54.314;10.022;2022-11-18T15:06:52;2.30;;;2.10;;
20454;SDS011;10386;54.314;10.022;2022-11-18T15:09:19;3.07;;;2.50;;
20454;SDS011;10386;54.314;10.022;2022-11-18T15:11:46;2.77;;;2.10;;
20454;SDS011;10386;54.314;10.022;2022-11-18T15:14:13;3.10;;;2.40;;
20454;SDS011;10386;54.314;10.022;2022-11-18T15:16:41;2.30;;;2.10;;
20454;SDS011;10386;54.314;10.022;2022-11-18T15:19:09;3.63;;;2.27;;
20454;SDS011;10386;54.314;10.022;2022-11-18T15:21:40;2.60;;;2.40;;
20454;SDS011;10386;54.314;10.022;2022-11-18T15:24:08;3.97;;;2.30;;
20454;SDS011;10386;54.314;10.022;2022-11-18T15:26:36;3.10;;;2.20;;
20454;SDS011;10386;54.314;10.022;2022-11-18T15:29:05;2.30;;;2.10;;
20454;SDS011;10386;54.314;10.022;2022-11-18T15:31:32;3.03;;;2.40;;
20454;SDS011;10386;54.314;10.022;2022-11-18T15:33:59;3.07;;;2.63;;
20454;SDS011;10386;54.314;10.022;2022-11-18T15:36:34;4.07;;;2.97;;
20454;SDS011;10386;54.314;10.022;2022-11-18T15:39:04;7.10;;;2.47;;
20454;SDS011;10386;54.314;10.022;2022-11-18T15:41:32;2.73;;;2.20;;
20454;SDS011;10386;54.314;10.022;2022-11-18T15:44:00;3.17;;;2.40;;
20454;SDS011;10386;54.314;10.022;2022-11-18T15:46:28;5.03;;;2.70;;
20454;SDS011;10386;54.314;10.022;2022-11-18T15:48:56;4.27;;;2.37;;
20454;SDS011;10386;54.314;10.022;2022-11-18T15:54:22;5.13;;;2.70;;
20454;SDS011;10386;54.314;10.022;2022-11-18T15:56:49;4.23;;;3.27;;
20454;SDS011;10386;54.314;10.022;2022-11-18T15:59:16;9.00;;;3.40;;
20454;SDS011;10386;54.314;10.022;2022-11-18T16:01:44;7.27;;;4.40;;
20454;SDS011;10386;54.314;10.022;2022-11-18T16:04:38;7.57;;;4.30;;
20454;SDS011;10386;54.314;10.022;2022-11-18T16:07:06;7.87;;;4.03;;
20454;SDS011;10386;54.314;10.022;2022-11-18T16:09:34;7.43;;;4.60;;
20454;SDS011;10386;54.314;10.022;2022-11-18T16:12:21;6.57;;;4.17;;
20454;SDS011;10386;54.314;10.022;2022-11-18T16:15:07;7.30;;;4.43;;
20454;SDS011;10386;54.314;10.022;2022-11-18T16:17:53;12.97;;;6.30;;
20454;SDS011;10386;54.314;10.022;2022-11-18T16:20:21;10.60;;;5.93;;
20454;SDS011;10386;54.314;10.022;2022-11-18T16:22:51;17.73;;;7.80;;
20454;SDS011;10386;54.314;10.022;2022-11-18T16:25:19;7.53;;;4.23;;
20454;SDS011;10386;54.314;10.022;2022-11-18T16:27:48;7.77;;;4.87;;
20454;SDS011;10386;54.314;10.022;2022-11-18T16:30:15;10.33;;;5.70;;
20454;SDS011;10386;54.314;10.022;2022-11-18T16:33:01;11.10;;;5.67;;
20454;SDS011;10386;54.314;10.022;2022-11-18T16:35:29;8.87;;;4.43;;
20454;SDS011;10386;54.314;10.022;2022-11-18T16:37:57;7.97;;;4.90;;
20454;SDS011;10386;54.314;10.022;2022-11-18T16:40:24;10.07;;;5.03;;
20454;SDS011;10386;54.314;10.022;2022-11-18T16:42:54;9.10;;;4.97;;
20454;SDS011;10386;54.314;10.022;2022-11-18T16:45:21;7.87;;;3.93;;
20454;SDS011;10386;54.314;10.022;2022-11-18T16:47:48;6.60;;;4.20;;
20454;SDS011;10386;54.314;10.022;2022-11-18T16:50:16;6.20;;;4.00;;
20454;SDS011;10386;54.314;10.022;2022-11-18T16:52:43;9.90;;;4.83;;
20454;SDS011;10386;54.314;10.022;2022-11-18T16:55:10;9.47;;;4.90;;
20454;SDS011;10386;54.314;10.022;2022-11-18T16:57:37;11.73;;;6.77;;
20454;SDS011;10386;54.314;10.022;2022-11-18T17:00:04;12.30;;;6.33;;
20454;SDS011;10386;54.314;10.022;2022-11-18T17:02:32;9.80;;;6.07;;
20454;SDS011;10386;54.314;10.022;2022-11-18T17:05:00;14.93;;;6.63;;
20454;SDS011;10386;54.314;10.022;2022-11-18T17:07:27;12.30;;;7.37;;